Time;durP1;ratioP1;P1;durP2;ratioP2;P2;SDS_P1;SDS_P2;PMS_P1;PMS_P2;Temp;Humidity;BMP_temperature;BMP_pressure;BME280_temperature;BME280_humidity;BME280_pressure;Samples;Min_cycle;Max_cycle;Signal;HPM_P1;HPM_P2
2022/05/04 00:00:11;;;;;;;3.88;2.10;;;;;;;18.95;45.60;101994.78;5042975;28;20025;-46
2022/05/04 00:02:37;;;;;;;3.65;2.20;;;;;;;18.94;45.55;101986.81;5042353;28;20108;-48
2022/05/04 00:05:03;;;;;;;3.40;2.20;;;;;;;18.95;45.63;101992.06;5043754;28;20032;-46
2022/05/04 00:07:28;;;;;;;4.35;2.30;;;;;;;18.95;45.65;101993.91;5043425;28;20021;-47
2022/05/04 00:09:55;;;;;;;3.45;2.00;;;;;;;18.94;45.68;101987.66;5043273;28;20217;-47
2022/05/04 00:12:21;;;;;;;3.50;2.03;;;;;;;18.93;45.56;101991.34;5043336;28;20037;-48
2022/05/04 00:14:46;;;;;;;3.53;1.98;;;;;;;18.93;45.28;101994.03;5043015;28;20025;-45
2022/05/04 00:17:11;;;;;;;3.58;1.85;;;;;;;18.93;45.59;101994.03;5043624;28;20037;-49
2022/05/04 00:19:37;;;;;;;3.55;2.35;;;;;;;18.92;45.62;101989.66;5037265;28;20025;-50
2022/05/04 00:22:02;;;;;;;4.05;1.85;;;;;;;18.92;45.36;101997.75;5047576;28;20047;-50
2022/05/04 00:24:27;;;;;;;3.55;1.77;;;;;;;18.91;45.14;101998.75;5043288;28;20032;-44
2022/05/04 00:26:53;;;;;;;3.38;2.05;;;;;;;18.92;45.28;101996.88;5043525;28;20034;-49
2022/05/04 00:29:18;;;;;;;3.67;2.03;;;;;;;18.91;45.28;101987.97;5043082;28;20029;-47
2022/05/04 00:31:43;;;;;;;2.60;1.70;;;;;;;18.91;45.64;101995.19;5043350;28;20045;-47
2022/05/04 00:34:08;;;;;;;3.10;2.00;;;;;;;18.90;45.42;101997.03;5043215;28;20037;-49
2022/05/04 00:36:33;;;;;;;3.15;2.03;;;;;;;18.90;45.25;101990.78;5042749;28;20088;-48
2022/05/04 00:38:59;;;;;;;2.40;1.77;;;;;;;18.87;45.46;101986.53;5043019;28;20033;-51
2022/05/04 00:41:24;;;;;;;3.20;2.03;;;;;;;18.86;45.37;101984.84;5043291;28;20453;-50
2022/05/04 00:43:51;;;;;;;3.40;1.80;;;;;;;18.88;45.13;101988.25;5041339;28;20095;-50
2022/05/04 00:46:16;;;;;;;3.03;1.73;;;;;;;18.88;45.26;101987.38;5043455;28;20108;-49
2022/05/04 00:48:41;;;;;;;3.50;2.15;;;;;;;18.88;45.30;101990.09;5043346;28;20033;-51
2022/05/04 00:51:07;;;;;;;3.22;1.73;;;;;;;18.88;45.32;101984.69;5043042;28;20022;-50
2022/05/04 00:53:32;;;;;;;3.22;2.15;;;;;;;18.88;45.04;101984.69;5045178;28;20053;-50
2022/05/04 00:56:00;;;;;;;2.22;1.60;;;;;;;18.87;44.71;101991.09;5045866;28;20025;-49
2022/05/04 01:01:09;;;;;;;2.92;1.67;;;;;;;18.85;45.03;101985.81;5045966;28;20055;-48
2022/05/04 01:03:34;;;;;;;3.33;1.88;;;;;;;18.82;45.07;101980.72;5047141;28;20049;-51
2022/05/04 01:05:59;;;;;;;2.35;1.67;;;;;;;18.84;44.83;101984.13;5045547;28;20175;-49
2022/05/04 01:08:25;;;;;;;3.33;2.08;;;;;;;18.83;44.84;101982.44;5046137;28;20037;-46
2022/05/04 01:10:50;;;;;;;2.90;1.90;;;;;;;18.84;44.81;101984.13;5046951;28;20025;-46
2022/05/04 01:13:18;;;;;;;2.78;1.58;;;;;;;18.84;44.86;101985.97;5046683;28;20021;-47
2022/05/04 01:15:44;;;;;;;2.65;1.52;;;;;;;18.84;45.06;101988.66;5046731;28;20026;-47
2022/05/04 01:18:09;;;;;;;2.70;1.65;;;;;;;18.82;44.64;101983.44;5046868;28;20036;-46
2022/05/04 01:20:34;;;;;;;2.35;1.38;;;;;;;18.83;44.89;101990.50;5046697;28;20061;-50
2022/05/04 01:22:59;;;;;;;2.88;1.77;;;;;;;18.82;44.81;101982.53;5059070;28;20047;-49
2022/05/04 01:25:25;;;;;;;3.10;1.77;;;;;;;18.82;44.97;101986.13;5066702;28;20677;-46
2022/05/04 01:27:50;;;;;;;2.10;1.35;;;;;;;18.81;44.60;101987.09;5066779;28;20517;-50
2022/05/04 01:30:15;;;;;;;2.72;1.77;;;;;;;18.81;44.89;101987.09;5065909;28;20025;-52
2022/05/04 01:32:40;;;;;;;2.28;1.60;;;;;;;18.81;44.96;101988.94;5066527;28;20060;-52
2022/05/04 01:35:06;;;;;;;2.53;1.48;;;;;;;18.81;44.90;101991.63;5066395;28;20073;-49
2022/05/04 01:37:31;;;;;;;2.92;1.73;;;;;;;18.79;44.93;101982.84;5050438;28;20060;-47
2022/05/04 01:39:56;;;;;;;2.92;1.50;;;;;;;18.78;44.85;101984.72;5045968;28;20676;-48
2022/05/04 01:42:24;;;;;;;1.75;1.23;;;;;;;18.79;44.59;101981.00;5046255;28;20029;-48
2022/05/04 01:44:50;;;;;;;3.20;1.63;;;;;;;18.76;44.81;101975.06;5045783;28;20030;-47
2022/05/04 01:47:15;;;;;;;2.33;1.50;;;;;;;18.79;44.67;101980.16;5046235;28;20029;-45
2022/05/04 01:49:41;;;;;;;2.65;1.65;;;;;;;18.75;44.54;101982.28;5046509;28;20056;-47
2022/05/04 01:52:07;;;;;;;1.85;1.30;;;;;;;18.77;44.67;101985.66;5045929;28;20544;-46
2022/05/04 01:54:32;;;;;;;2.47;1.75;;;;;;;18.77;44.80;101987.53;5046009;28;20485;-44
2022/05/04 01:56:57;;;;;;;2.13;1.63;;;;;;;18.75;44.83;101976.06;5046176;28;20048;-47
2022/05/04 01:59:22;;;;;;;2.58;1.65;;;;;;;18.76;44.85;101977.75;5045631;28;20088;-45
2022/05/04 02:01:48;;;;;;;2.00;1.48;;;;;;;18.73;44.69;101973.47;5046166;28;20056;-46
2022/05/04 02:04:14;;;;;;;3.28;1.95;;;;;;;18.75;44.63;101990.38;5044550;28;20983;-45
2022/05/04 02:06:39;;;;;;;1.95;1.40;;;;;;;18.75;44.45;101979.59;5044175;28;20351;-48
2022/05/04 02:09:06;;;;;;;2.08;1.48;;;;;;;18.70;44.76;101980.00;5045735;28;20037;-46
2022/05/04 02:11:32;;;;;;;2.05;1.50;;;;;;;18.72;44.65;101982.56;5045914;28;20025;-49
2022/05/04 02:13:58;;;;;;;1.85;1.45;;;;;;;18.73;44.60;101978.88;5044937;28;20644;-46
2022/05/04 02:16:23;;;;;;;1.67;1.30;;;;;;;18.73;44.58;101976.16;5045700;28;20029;-46
2022/05/04 02:18:48;;;;;;;1.85;1.50;;;;;;;18.72;44.37;101979.88;5045880;28;20053;-45
2022/05/04 02:21:13;;;;;;;2.63;1.33;;;;;;;18.72;44.35;101975.31;5045413;28;20494;-48
2022/05/04 02:23:39;;;;;;;1.88;1.40;;;;;;;18.72;44.32;101969.09;5063255;28;20509;-47
2022/05/04 02:26:04;;;;;;;2.35;1.35;;;;;;;18.69;44.10;101977.41;5065564;28;20035;-48
2022/05/04 02:28:29;;;;;;;2.22;1.65;;;;;;;18.54;44.46;101941.97;5065123;28;20033;-47
2022/05/04 02:30:54;;;;;;;2.38;1.33;;;;;;;18.66;44.09;101972.31;5065364;28;20025;-50
2022/05/04 02:33:20;;;;;;;2.22;1.30;;;;;;;18.69;44.46;101977.41;5065640;28;20035;-52
2022/05/04 02:38:40;;;;;;;2.22;1.30;;;;;;;18.68;44.31;101973.03;5002606;28;20105;-44
2022/05/04 02:41:05;;;;;;;2.10;1.48;;;;;;;18.68;44.34;101967.63;5003376;28;20034;-48
2022/05/04 02:43:30;;;;;;;1.90;1.30;;;;;;;18.63;44.15;101959.13;5002446;28;20031;-44
2022/05/04 02:45:57;;;;;;;2.45;1.33;;;;;;;18.67;44.21;101963.25;4986739;28;20061;-49
2022/05/04 02:48:22;;;;;;;3.63;2.10;;;;;;;18.67;44.06;101968.63;5003179;28;20026;-44
2022/05/04 02:50:47;;;;;;;1.70;1.08;;;;;;;18.65;44.13;101963.41;5003199;28;20031;-46
2022/05/04 02:53:12;;;;;;;1.90;1.33;;;;;;;18.66;44.42;101958.84;5002261;28;20050;-48
2022/05/04 02:55:38;;;;;;;2.10;1.45;;;;;;;18.65;43.96;101949.94;5002887;28;20394;-45
2022/05/04 02:58:03;;;;;;;1.90;1.27;;;;;;;18.65;44.27;101955.31;5002781;28;20065;-48
2022/05/04 03:00:29;;;;;;;1.95;1.27;;;;;;;18.64;44.22;101956.28;5002384;28;20110;-47
2022/05/04 03:02:54;;;;;;;1.98;1.35;;;;;;;18.63;44.15;101953.75;5002643;28;20046;-48
2022/05/04 03:05:20;;;;;;;2.05;1.45;;;;;;;18.64;43.76;101952.75;5002835;28;20029;-53
2022/05/04 03:07:46;;;;;;;2.00;1.20;;;;;;;18.63;44.01;101951.06;5001945;28;20180;-52
2022/05/04 03:10:13;;;;;;;2.97;1.65;;;;;;;18.63;44.21;101951.06;5002435;28;20018;-48
2022/05/04 03:12:39;;;;;;;2.20;1.40;;;;;;;18.62;43.96;101960.97;5002710;28;20034;-51
2022/05/04 03:15:04;;;;;;;2.13;1.30;;;;;;;18.61;43.73;101951.19;5022601;28;20100;-47
2022/05/04 03:17:29;;;;;;;1.70;1.10;;;;;;;18.62;43.76;101952.06;5044570;28;20030;-51
2022/05/04 03:19:55;;;;;;;2.00;1.02;;;;;;;18.61;43.71;101958.44;5044511;28;20049;-49
2022/05/04 03:22:20;;;;;;;1.70;1.23;;;;;;;18.60;43.69;101946.78;5051412;28;20104;-49
2022/05/04 03:24:45;;;;;;;1.65;1.20;;;;;;;18.60;43.78;101944.09;5063061;28;20039;-48
2022/05/04 03:27:10;;;;;;;1.92;1.58;;;;;;;18.59;43.90;101950.47;5064238;28;20024;-48
2022/05/04 03:29:36;;;;;;;1.92;1.27;;;;;;;18.58;43.85;101946.09;5063960;28;20029;-47
2022/05/04 03:32:03;;;;;;;2.95;1.50;;;;;;;18.58;43.84;101948.78;5064291;28;20083;-48
2022/05/04 03:34:29;;;;;;;1.92;1.30;;;;;;;18.56;44.04;101948.06;5064430;28;20044;-49
2022/05/04 03:36:54;;;;;;;2.38;1.25;;;;;;;18.57;43.97;101947.09;5048976;28;20122;-52
2022/05/04 03:39:19;;;;;;;2.50;1.50;;;;;;;18.56;43.92;101942.66;5044178;28;20029;-49
2022/05/04 03:41:45;;;;;;;1.77;1.20;;;;;;;18.56;43.92;101945.38;5044148;28;20036;-50
2022/05/04 03:44:10;;;;;;;1.27;1.05;;;;;;;18.57;43.80;101940.84;5043545;28;20030;-51
2022/05/04 03:46:52;;;;;;;1.77;1.08;;;;;;;18.56;43.63;101939.97;5044210;28;20044;-50
2022/05/04 03:49:20;;;;;;;1.60;1.50;;;;;;;18.55;43.81;101940.97;5044269;28;20049;-48
2022/05/04 03:51:45;;;;;;;1.20;1.10;;;;;;;18.55;43.90;101937.44;5043881;28;20112;-52
2022/05/04 03:54:11;;;;;;;2.15;1.30;;;;;;;18.53;43.66;101942.97;5043825;28;20123;-47
2022/05/04 03:56:37;;;;;;;1.95;1.23;;;;;;;18.53;43.79;101937.59;5043895;28;20026;-50
2022/05/04 03:59:03;;;;;;;1.33;1.02;;;;;;;18.49;43.71;101938.88;5042111;28;20029;-49
2022/05/04 04:01:28;;;;;;;1.63;0.95;;;;;;;18.52;43.67;101949.38;5043679;28;20083;-47
2022/05/04 04:03:54;;;;;;;1.95;1.00;;;;;;;18.52;43.74;101949.38;5043605;28;20033;-45
2022/05/04 04:06:19;;;;;;;1.20;1.00;;;;;;;18.53;43.58;101944.81;5043521;28;20064;-45
2022/05/04 04:08:44;;;;;;;1.90;1.65;;;;;;;18.49;43.58;101945.09;5043069;28;20025;-48
2022/05/04 04:11:10;;;;;;;1.73;1.25;;;;;;;18.46;43.48;101941.81;5042247;28;20089;-49
2022/05/04 04:13:36;;;;;;;1.45;1.13;;;;;;;18.45;43.55;101932.06;5042910;28;20580;-49
2022/05/04 04:16:01;;;;;;;1.10;0.90;;;;;;;18.49;43.26;101941.56;5043731;28;20089;-49
2022/05/04 04:18:27;;;;;;;1.35;1.10;;;;;;;18.48;43.46;101942.56;5034970;28;20046;-48
2022/05/04 04:23:38;;;;;;;2.22;1.33;;;;;;;18.49;43.52;101950.47;5042918;28;20064;-46
2022/05/04 04:26:05;;;;;;;3.03;1.48;;;;;;;18.49;43.73;101946.94;5034777;28;20030;-48
2022/05/04 04:28:31;;;;;;;1.30;1.20;;;;;;;18.48;43.99;101950.63;5040025;28;20100;-45
2022/05/04 04:30:56;;;;;;;1.20;0.80;;;;;;;18.48;44.00;101947.94;5042882;28;20032;-47
2022/05/04 04:33:29;;;;;;;1.45;1.17;;;;;;;18.48;43.74;101945.25;5034774;28;20025;-48
2022/05/04 04:35:57;;;;;;;1.63;1.00;;;;;;;18.46;43.97;101945.38;5034569;28;20048;-49
2022/05/04 04:38:23;;;;;;;1.55;0.90;;;;;;;18.44;43.98;101941.97;5028603;28;20026;-50
2022/05/04 04:40:48;;;;;;;1.40;1.00;;;;;;;18.44;44.17;101941.13;5031907;28;20083;-46
2022/05/04 04:43:15;;;;;;;1.40;1.00;;;;;;;18.45;44.06;101949.06;5038660;28;20029;-48
2022/05/04 04:45:43;;;;;;;1.35;1.05;;;;;;;18.46;44.01;101955.28;5038996;28;20028;-49
2022/05/04 04:48:08;;;;;;;2.58;1.00;;;;;;;18.45;44.29;101957.13;5042261;28;20037;-45
2022/05/04 04:50:33;;;;;;;1.77;1.00;;;;;;;18.46;44.24;101960.69;5042853;28;20033;-46
2022/05/04 04:52:58;;;;;;;1.55;1.00;;;;;;;18.45;44.06;101954.44;5035101;28;20026;-47
2022/05/04 04:55:24;;;;;;;2.35;1.42;;;;;;;18.43;44.35;101950.19;5036627;28;20044;-49
2022/05/04 04:57:49;;;;;;;1.00;0.90;;;;;;;18.46;44.34;101953.44;5037263;28;20021;-46
2022/05/04 05:00:15;;;;;;;1.88;1.00;;;;;;;18.41;44.03;101944.09;5036528;28;20022;-47
2022/05/04 05:02:40;;;;;;;1.52;0.93;;;;;;;18.47;44.42;101959.69;5037341;28;20072;-45
2022/05/04 05:05:06;;;;;;;1.70;1.08;;;;;;;18.44;44.27;101952.75;5042265;28;20386;-46
2022/05/04 05:07:32;;;;;;;1.45;1.10;;;;;;;18.48;44.12;101958.72;5026130;28;20028;-47
2022/05/04 05:09:57;;;;;;;2.35;1.10;;;;;;;18.47;44.04;101957.00;5036628;28;20025;-51
2022/05/04 05:12:23;;;;;;;1.50;0.93;;;;;;;18.48;44.03;101959.56;5043193;28;20033;-46
2022/05/04 05:17:33;;;;;;;1.33;1.08;;;;;;;18.48;44.30;101956.03;5037620;28;20513;-50
2022/05/04 05:19:59;;;;;;;1.10;0.88;;;;;;;18.48;44.34;101964.94;5042697;28;20032;-50
2022/05/04 05:22:24;;;;;;;1.50;1.02;;;;;;;18.48;44.24;101958.72;5046649;28;20033;-48
2022/05/04 05:24:49;;;;;;;2.65;1.02;;;;;;;18.48;44.50;101956.03;5042382;28;20025;-50
2022/05/04 05:27:15;;;;;;;1.30;0.90;;;;;;;18.47;44.17;101957.84;5043751;28;20104;-50
2022/05/04 05:29:40;;;;;;;1.58;1.10;;;;;;;18.47;44.19;101963.22;5033884;28;20030;-47
2022/05/04 05:32:05;;;;;;;1.23;1.00;;;;;;;18.47;44.36;101955.13;5042228;28;20033;-49
2022/05/04 05:34:33;;;;;;;0.88;0.85;;;;;;;18.46;44.33;101953.44;5042534;28;20021;-48
2022/05/04 05:36:59;;;;;;;1.08;0.90;;;;;;;18.48;44.49;101948.78;5039883;28;20041;-50
2022/05/04 05:39:24;;;;;;;1.05;0.80;;;;;;;18.47;44.48;101941.69;5027309;28;20057;-48
2022/05/04 05:41:49;;;;;;;0.82;0.73;;;;;;;18.48;44.22;101943.41;5040014;28;20128;-45
2022/05/04 05:44:15;;;;;;;1.27;1.10;;;;;;;18.49;44.58;101949.63;5045652;28;20061;-48
2022/05/04 05:46:40;;;;;;;1.52;0.85;;;;;;;18.49;44.31;101947.78;5046410;28;20037;-49
2022/05/04 05:49:05;;;;;;;1.80;1.00;;;;;;;18.48;44.57;101951.47;5046217;28;20038;-45
2022/05/04 05:51:30;;;;;;;1.15;1.00;;;;;;;18.49;44.52;101949.63;5045796;28;20033;-47
2022/05/04 05:53:55;;;;;;;1.80;1.00;;;;;;;18.49;44.41;101952.31;5044946;28;20501;-47
2022/05/04 05:56:21;;;;;;;2.17;0.90;;;;;;;18.49;44.55;101963.09;5042097;28;20022;-46
2022/05/04 05:58:46;;;;;;;1.58;1.05;;;;;;;18.49;44.57;101955.88;5042790;28;20111;-47
2022/05/04 06:01:12;;;;;;;2.58;0.80;;;;;;;18.50;44.48;101956.72;5044507;28;20044;-48
2022/05/04 06:03:37;;;;;;;1.00;0.90;;;;;;;18.49;44.69;101960.41;5045616;28;20029;-48
2022/05/04 06:06:02;;;;;;;1.83;0.90;;;;;;;18.50;44.31;101962.09;5045599;28;20048;-47
2022/05/04 06:08:27;;;;;;;1.17;0.95;;;;;;;18.49;44.25;101958.56;5039255;28;20018;-46
2022/05/04 06:10:52;;;;;;;1.40;0.82;;;;;;;18.51;44.34;101961.09;5045944;28;20040;-47
2022/05/04 06:13:18;;;;;;;1.20;1.00;;;;;;;18.52;44.28;101961.94;5045081;28;20036;-51
2022/05/04 06:15:44;;;;;;;1.17;1.00;;;;;;;18.53;44.26;101963.69;5045381;28;20033;-48
2022/05/04 06:18:10;;;;;;;1.35;0.82;;;;;;;18.53;44.49;101963.69;5045601;28;20037;-47
2022/05/04 06:20:35;;;;;;;1.42;1.00;;;;;;;18.52;44.47;101962.84;5045913;28;20064;-47
2022/05/04 06:23:00;;;;;;;2.13;0.98;;;;;;;18.53;44.59;101963.69;5058248;28;20036;-49
2022/05/04 06:25:25;;;;;;;1.35;0.95;;;;;;;18.51;44.37;101957.56;5065669;28;20466;-48
2022/05/04 06:27:51;;;;;;;1.10;1.00;;;;;;;18.54;44.37;101962.69;5065447;28;20115;-52
2022/05/04 06:35:44;;;;;;;1.00;0.77;;;;;;;18.54;44.39;101966.22;5065446;28;20086;-48
2022/05/04 06:38:10;;;;;;;1.45;0.82;;;;;;;18.54;44.57;101955.44;5051073;28;20037;-48
2022/05/04 06:40:35;;;;;;;0.98;0.80;;;;;;;18.55;44.76;101970.59;5045459;28;20025;-46
2022/05/04 06:43:01;;;;;;;1.27;0.77;;;;;;;18.57;44.62;101967.78;5044004;28;20036;-48
2022/05/04 06:45:26;;;;;;;1.25;0.98;;;;;;;18.58;44.40;101964.94;5044731;28;20021;-51
2022/05/04 06:47:51;;;;;;;1.33;1.02;;;;;;;18.58;44.64;101959.56;5045058;28;20028;-45
2022/05/04 06:50:17;;;;;;;1.33;1.20;;;;;;;18.60;44.51;101968.34;5044032;28;20032;-50
2022/05/04 06:52:42;;;;;;;2.05;1.00;;;;;;;18.62;44.69;101968.22;5044758;28;20100;-51
2022/05/04 06:55:08;;;;;;;1.17;0.80;;;;;;;18.63;44.31;101957.28;5044902;28;20041;-49
2022/05/04 06:57:34;;;;;;;1.25;1.00;;;;;;;18.61;44.37;101961.97;5045108;28;20033;-49
2022/05/04 07:00:04;;;;;;;1.90;0.90;;;;;;;18.64;44.27;101961.66;5044142;28;20100;-49
2022/05/04 07:02:29;;;;;;;1.20;0.80;;;;;;;18.67;44.15;101966.78;5044999;28;20029;-50
2022/05/04 07:04:54;;;;;;;1.05;0.75;;;;;;;18.67;44.02;101964.09;5043644;28;20041;-48
2022/05/04 07:07:20;;;;;;;1.67;1.13;;;;;;;18.69;43.99;101969.31;5044224;28;20052;-46
2022/05/04 07:09:45;;;;;;;0.82;0.60;;;;;;;18.70;44.26;101965.69;5044387;28;20049;-48
2022/05/04 07:12:10;;;;;;;1.77;1.00;;;;;;;18.71;43.87;101965.53;5044670;28;20029;-48
2022/05/04 07:14:35;;;;;;;1.52;1.13;;;;;;;18.69;43.73;101959.47;5044023;28;20034;-45
2022/05/04 07:17:01;;;;;;;1.92;0.90;;;;;;;18.69;43.88;101962.16;5044372;28;20057;-48
2022/05/04 07:19:26;;;;;;;0.90;0.65;;;;;;;18.69;43.85;101956.78;5044732;28;20064;-47
2022/05/04 07:21:51;;;;;;;1.85;0.80;;;;;;;18.70;44.06;101954.94;5047536;28;20067;-48
2022/05/04 07:24:16;;;;;;;3.03;1.35;;;;;;;18.69;44.08;101948.69;5024582;28;20131;-47
2022/05/04 07:26:42;;;;;;;1.65;0.93;;;;;;;18.68;43.99;101954.16;5024769;28;20030;-51
2022/05/04 07:29:07;;;;;;;1.00;0.60;;;;;;;18.71;43.88;101951.22;5024146;28;20053;-48
2022/05/04 07:31:33;;;;;;;1.33;0.85;;;;;;;18.70;43.66;101953.06;5024886;28;20028;-47
2022/05/04 07:33:59;;;;;;;1.17;0.88;;;;;;;18.72;43.65;101952.94;5024360;28;20030;-52
2022/05/04 07:36:24;;;;;;;0.75;0.60;;;;;;;18.72;43.43;101959.16;5024395;28;20080;-51
2022/05/04 07:38:49;;;;;;;1.00;0.70;;;;;;;18.73;43.52;101960.00;5039034;28;20068;-53
2022/05/04 07:43:59;;;;;;;1.95;1.35;;;;;;;18.69;43.58;101955.84;5043341;28;20032;-49
2022/05/04 07:46:26;;;;;;;1.23;0.80;;;;;;;18.70;44.15;101958.47;5044360;28;20026;-50
2022/05/04 07:48:51;;;;;;;1.13;0.93;;;;;;;18.71;43.61;101965.53;5044102;28;20051;-52
2022/05/04 07:51:16;;;;;;;1.63;0.90;;;;;;;18.71;43.67;101964.69;5044122;28;20033;-51
2022/05/04 07:53:41;;;;;;;1.40;1.00;;;;;;;18.71;43.65;101962.00;5042920;28;20033;-46
2022/05/04 07:56:07;;;;;;;0.70;0.70;;;;;;;18.70;43.55;101960.31;5043929;28;20029;-47
2022/05/04 07:58:32;;;;;;;2.00;1.13;;;;;;;18.69;43.52;101964.84;5043523;28;20033;-48
2022/05/04 08:06:25;;;;;;;1.55;1.10;;;;;;;18.64;43.39;101969.75;5044130;28;20453;-47
2022/05/04 08:08:51;;;;;;;0.70;0.70;;;;;;;18.68;43.52;101973.03;5043152;28;20038;-49
2022/05/04 08:11:16;;;;;;;1.35;0.80;;;;;;;18.66;43.42;101966.94;5043969;28;20026;-45
2022/05/04 08:13:41;;;;;;;1.38;0.90;;;;;;;18.67;43.49;101972.19;5042539;28;20083;-47
2022/05/04 08:16:10;;;;;;;1.38;0.80;;;;;;;18.69;43.22;101972.03;5043883;28;20037;-47
2022/05/04 08:18:37;;;;;;;1.23;0.70;;;;;;;18.70;43.33;101968.41;5043834;28;20021;-45
2022/05/04 08:21:02;;;;;;;1.17;0.65;;;;;;;18.68;43.37;101967.63;5042656;28;20037;-47
2022/05/04 08:23:28;;;;;;;1.15;0.88;;;;;;;18.68;43.27;101965.78;5059318;28;20025;-46
2022/05/04 08:25:53;;;;;;;0.90;0.77;;;;;;;18.71;43.12;101970.94;5042344;28;20148;-51
2022/05/04 08:28:19;;;;;;;2.38;0.75;;;;;;;18.72;43.46;101972.63;5043302;28;20029;-47
2022/05/04 08:30:45;;;;;;;2.17;0.90;;;;;;;18.72;43.28;101975.31;5043151;28;20022;-46
2022/05/04 08:33:10;;;;;;;1.13;0.80;;;;;;;18.74;43.47;101977.91;5043387;28;20033;-47
2022/05/04 08:35:35;;;;;;;1.38;1.00;;;;;;;18.74;43.10;101972.50;5041647;28;20029;-47
2022/05/04 08:38:00;;;;;;;2.03;0.80;;;;;;;18.76;43.41;101975.91;5042920;28;20529;-43
2022/05/04 08:40:26;;;;;;;0.93;0.75;;;;;;;18.78;43.04;101975.78;5043313;28;20044;-45
2022/05/04 08:42:51;;;;;;;1.58;0.80;;;;;;;18.76;43.09;101975.91;5043293;28;20088;-50
2022/05/04 08:45:17;;;;;;;0.70;0.70;;;;;;;18.79;42.94;101977.47;5042559;28;20048;-52
2022/05/04 08:47:44;;;;;;;0.80;0.68;;;;;;;18.80;43.23;101979.16;5043395;28;20048;-49
2022/05/04 08:50:14;;;;;;;1.30;0.80;;;;;;;18.81;42.71;101973.63;5043284;28;20029;-51
2022/05/04 08:52:44;;;;;;;1.48;0.82;;;;;;;18.82;42.74;101974.47;5043163;28;20033;-47
2022/05/04 08:55:10;;;;;;;1.20;0.70;;;;;;;18.82;42.88;101980.72;5075229;28;20031;-47
2022/05/04 08:57:36;;;;;;;0.90;0.80;;;;;;;18.82;42.82;101978.03;5043305;28;20047;-49
2022/05/04 09:00:02;;;;;;;1.33;0.77;;;;;;;18.78;42.95;101965.84;5074536;28;20081;-46
2022/05/04 09:02:27;;;;;;;1.65;0.75;;;;;;;18.84;43.08;101972.50;5075343;28;20029;-50
2022/05/04 09:04:52;;;;;;;1.55;0.80;;;;;;;18.84;42.98;101973.34;5042671;28;20048;-49
2022/05/04 09:07:22;;;;;;;1.38;0.80;;;;;;;18.85;43.08;101975.03;5043078;28;20112;-49
2022/05/04 09:09:47;;;;;;;;;;;;;;;18.80;43.03;101968.38;5043112;28;20032;-49
2022/05/04 09:12:15;;;;;;;1.13;1.00;;;;;;;18.81;43.05;101978.16;5042951;28;19909;-48
2022/05/04 09:14:41;;;;;;;1.42;0.70;;;;;;;18.81;42.77;101970.06;5026255;28;20040;-51
2022/05/04 09:17:10;;;;;;;0.50;0.50;;;;;;;18.80;43.04;101960.31;5040506;28;20083;-53
2022/05/04 09:19:36;;;;;;;1.50;0.82;;;;;;;18.83;43.01;101960.03;5043998;28;20652;-51
2022/05/04 09:22:01;;;;;;;1.20;0.70;;;;;;;18.79;42.92;101948.69;5042664;28;20032;-49
2022/05/04 09:24:28;;;;;;;1.67;0.80;;;;;;;18.85;42.85;101960.72;5044001;28;20112;-51
2022/05/04 09:26:56;;;;;;;0.88;0.70;;;;;;;18.86;42.86;101951.63;5044565;28;20068;-48
2022/05/04 09:29:32;;;;;;;1.67;0.82;;;;;;;18.87;42.66;101950.66;5042092;28;20102;-45
2022/05/04 09:31:58;;;;;;;1.17;0.75;;;;;;;18.87;42.97;101954.22;5040690;28;20030;-50
2022/05/04 09:34:33;;;;;;;0.90;0.80;;;;;;;18.89;42.98;101956.75;5043951;28;20093;-45
2022/05/04 09:45:33;;;;;;;0.70;0.70;;;;;;;18.89;42.59;101965.69;5039627;28;20047;-49
2022/05/04 09:47:59;;;;;;;1.15;0.70;;;;;;;18.87;42.80;101953.34;5044100;28;20553;-51
2022/05/04 09:50:26;;;;;;;1.20;1.00;;;;;;;18.92;42.78;101946.53;5044062;28;20024;-45
2022/05/04 09:52:52;;;;;;;0.88;0.88;;;;;;;18.90;42.75;101945.84;5041976;28;20033;-45
2022/05/04 09:55:24;;;;;;;0.80;0.75;;;;;;;18.93;42.67;101950.94;5058684;28;20029;-49
2022/05/04 09:57:51;;;;;;;1.38;0.75;;;;;;;18.92;42.84;101949.22;5043741;28;20032;-45
2022/05/04 10:00:21;;;;;;;1.73;0.77;;;;;;;18.88;42.75;101937.03;5051875;28;20040;-45
2022/05/04 10:02:47;;;;;;;2.13;1.00;;;;;;;18.97;43.08;101943.41;5040476;28;20076;-44
2022/05/04 10:05:13;;;;;;;1.02;0.77;;;;;;;18.97;43.06;101944.25;5043106;28;20128;-51
2022/05/04 10:07:38;;;;;;;0.77;0.68;;;;;;;18.99;42.79;101944.13;5042987;28;20101;-50
2022/05/04 10:10:05;;;;;;;1.88;0.68;;;;;;;19.00;43.19;101935.03;5040468;28;20025;-45
2022/05/04 10:12:30;;;;;;;0.50;0.50;;;;;;;19.01;43.09;101933.19;5041815;28;20032;-45
2022/05/04 10:15:00;;;;;;;0.90;0.77;;;;;;;19.02;43.05;101930.34;5038131;28;20029;-44
2022/05/04 10:17:26;;;;;;;1.35;0.80;;;;;;;19.02;42.90;101929.50;5041214;28;20052;-46
2022/05/04 10:20:11;;;;;;;1.08;0.80;;;;;;;19.04;42.88;101927.53;5040027;28;20071;-44
2022/05/04 10:22:47;;;;;;;1.73;0.65;;;;;;;19.04;42.71;101931.06;5039242;28;20048;-45
2022/05/04 10:25:14;;;;;;;0.65;0.60;;;;;;;19.04;43.29;101930.22;5068114;28;20021;-44
2022/05/04 10:27:40;;;;;;;0.85;0.60;;;;;;;19.05;42.88;101929.22;5041742;28;20037;-46
2022/05/04 10:33:05;;;;;;;1.58;0.80;;;;;;;19.05;43.21;101930.06;5042746;28;20059;-46
2022/05/04 10:35:48;;;;;;;1.40;0.90;;;;;;;19.05;42.98;101938.16;5039819;28;20076;-44
2022/05/04 10:38:13;;;;;;;2.33;0.80;;;;;;;19.05;43.28;101926.53;5039249;28;20025;-45
2022/05/04 10:40:51;;;;;;;1.27;0.90;;;;;;;19.06;43.15;101923.66;5042471;28;20080;-45
2022/05/04 10:43:33;;;;;;;0.98;0.80;;;;;;;19.07;43.38;101927.22;5042028;28;20030;-45
2022/05/04 10:46:03;;;;;;;0.80;0.75;;;;;;;19.09;43.38;101925.25;5042671;28;20021;-44
2022/05/04 10:48:29;;;;;;;1.10;0.90;;;;;;;19.08;43.52;101928.94;5043169;28;20037;-43
2022/05/04 10:51:18;;;;;;;1.45;1.00;;;;;;;19.11;43.51;101926.78;5043035;28;20026;-44
2022/05/04 10:53:45;;;;;;;1.27;0.90;;;;;;;19.10;43.25;101927.78;5041874;28;20029;-45
2022/05/04 10:56:13;;;;;;;1.33;1.08;;;;;;;19.12;43.21;101920.41;5041672;28;20548;-43
2022/05/04 10:58:42;;;;;;;1.02;0.73;;;;;;;19.14;43.47;101917.56;5042310;28;20021;-46
2022/05/04 11:01:20;;;;;;;1.05;0.60;;;;;;;19.16;43.63;101921.81;5042556;28;20036;-47
2022/05/04 11:04:04;;;;;;;1.38;0.77;;;;;;;19.17;43.62;101918.13;5042099;28;20034;-44
2022/05/04 11:06:34;;;;;;;1.55;0.80;;;;;;;19.17;43.45;101914.59;5042831;28;20052;-43
2022/05/04 11:09:20;;;;;;;1.52;0.85;;;;;;;19.19;43.48;101907.19;5040686;28;20629;-45
2022/05/04 11:11:50;;;;;;;1.27;0.90;;;;;;;19.20;43.47;101915.13;5041299;28;20049;-47
2022/05/04 11:14:17;;;;;;;1.45;1.00;;;;;;;19.21;43.79;101913.28;5041397;28;20091;-44
2022/05/04 11:16:44;;;;;;;2.22;1.05;;;;;;;19.21;43.47;101914.13;5042438;28;20036;-46
2022/05/04 11:19:12;;;;;;;0.70;0.70;;;;;;;19.24;43.70;101910.28;5042601;28;20033;-47
2022/05/04 11:21:38;;;;;;;0.88;0.77;;;;;;;19.23;43.84;101909.44;5043021;28;20032;-46
2022/05/04 11:24:06;;;;;;;0.80;0.80;;;;;;;19.26;43.69;101916.41;5041187;28;20041;-44
2022/05/04 11:26:36;;;;;;;0.77;0.65;;;;;;;19.27;44.00;101912.69;5042223;28;20121;-44
2022/05/04 11:29:07;;;;;;;0.80;0.77;;;;;;;19.28;43.49;101908.16;5041834;28;20063;-47
2022/05/04 11:31:32;;;;;;;1.10;0.77;;;;;;;19.29;43.69;101909.88;5042187;28;20037;-43
2022/05/04 11:33:57;;;;;;;1.17;0.80;;;;;;;19.31;44.06;101908.72;5041715;28;20057;-46
2022/05/04 11:36:22;;;;;;;1.05;0.80;;;;;;;19.33;44.04;101912.13;5041332;28;20124;-45
2022/05/04 11:38:49;;;;;;;1.15;0.95;;;;;;;19.35;43.96;101914.66;5041431;28;20116;-46
2022/05/04 11:41:15;;;;;;;0.90;0.90;;;;;;;19.36;43.72;101905.56;5042120;28;20025;-44
2022/05/04 11:43:40;;;;;;;1.20;0.90;;;;;;;19.38;43.96;101908.97;5040360;28;20048;-45
2022/05/04 11:46:09;;;;;;;1.13;0.80;;;;;;;19.39;43.75;101905.28;5042034;28;20040;-46
2022/05/04 11:48:55;;;;;;;1.25;1.02;;;;;;;19.41;44.06;101903.28;5041239;28;20037;-50
2022/05/04 11:51:20;;;;;;;0.73;0.73;;;;;;;19.42;44.09;101902.28;5042200;28;20036;-51
2022/05/04 11:53:45;;;;;;;1.00;0.90;;;;;;;19.42;43.74;101894.22;5039752;28;20085;-51
2022/05/04 11:56:11;;;;;;;1.52;0.90;;;;;;;19.41;44.25;101898.75;5040610;28;20032;-52